Time,TemperatureF,DewpointF,PressureIn,WindDirection,WindDirectionDegrees,WindSpeedMPH,WindSpeedGustMPH,Humidity,HourlyPrecipIn,Conditions,Clouds,dailyrainin,SolarRadiationWatts/m^2,SoftwareType,DateUTC
2013-02-16 00:21:00,66.0,66.0,-100.00,NE,44,5.0,12.0,100,0.00,,,0.00,0.000000,,2013-02-16 10:21:00,
2013-02-16 00:31:00,66.0,66.0,-100.00,NE,44,5.0,12.0,100,0.00,,,0.00,0.000000,,2013-02-16 10:31:00,
2013-02-16 00:41:00,66.0,66.0,-100.00,NE,44,5.0,12.0,100,0.00,,,0.00,0.000000,,2013-02-16 10:41:00,
2013-02-16 00:51:00,66.0,66.0,-100.00,NE,44,5.0,12.0,100,0.00,,,0.00,0.000000,,2013-02-16 10:51:00,
2013-02-16 01:22:00,65.0,65.0,-100.00,East,79,3.0,16.0,100,0.01,,,0.01,0.000000,,2013-02-16 11:22:00,
2013-02-16 01:31:00,65.0,65.0,-100.00,East,79,3.0,16.0,100,0.01,,,0.01,0.000000,,2013-02-16 11:31:00,
2013-02-16 01:42:00,65.0,65.0,-100.00,East,79,3.0,16.0,100,0.01,,,0.01,0.000000,,2013-02-16 11:42:00,
2013-02-16 01:52:00,65.0,65.0,-100.00,East,79,3.0,16.0,100,0.01,,,0.01,0.000000,,2013-02-16 11:52:00,
2013-02-16 02:22:00,64.0,64.0,-100.00,West,264,2.0,6.0,100,0.01,,,0.02,0.000000,,2013-02-16 12:22:00,
2013-02-16 02:32:00,64.0,64.0,-100.00,West,264,2.0,6.0,100,0.01,,,0.02,0.000000,,2013-02-16 12:32:00,
2013-02-16 02:42:00,64.0,64.0,-100.00,West,264,2.0,6.0,100,0.01,,,0.02,0.000000,,2013-02-16 12:42:00,
2013-02-16 02:52:00,64.0,64.0,-100.00,West,264,2.0,6.0,100,0.01,,,0.02,0.000000,,2013-02-16 12:52:00,
2013-02-16 03:21:00,64.0,64.0,-100.00,WSW,245,4.0,6.0,100,0.02,,,-99.99,0.000000,,2013-02-16 13:21:00,
2013-02-16 03:31:00,64.0,64.0,-100.00,WSW,245,4.0,6.0,100,0.02,,,-99.99,0.000000,,2013-02-16 13:31:00,
2013-02-16 03:41:00,64.0,64.0,-100.00,WSW,245,4.0,6.0,100,0.02,,,-99.99,0.000000,,2013-02-16 13:41:00,
2013-02-16 03:51:00,64.0,64.0,-100.00,WSW,245,4.0,6.0,100,0.02,,,-99.99,0.000000,,2013-02-16 13:51:00,
2013-02-16 04:21:00,62.0,62.0,-100.00,ESE,108,3.0,11.0,100,0.00,,,0.04,0.000000,,2013-02-16 14:21:00,
2013-02-16 04:32:00,62.0,62.0,-100.00,ESE,108,3.0,11.0,100,0.00,,,0.04,0.000000,,2013-02-16 14:32:00,
2013-02-16 04:41:00,62.0,62.0,-100.00,ESE,108,3.0,11.0,100,0.00,,,0.04,0.000000,,2013-02-16 14:41:00,
2013-02-16 04:52:00,62.0,62.0,-100.00,ESE,108,3.0,11.0,100,0.00,,,0.04,0.000000,,2013-02-16 14:52:00,
2013-02-16 05:21:00,64.0,64.0,-100.00,East,100,3.0,8.0,100,0.00,,,0.04,0.000000,,2013-02-16 15:21:00,
2013-02-16 05:31:00,64.0,64.0,-100.00,East,100,3.0,8.0,100,0.00,,,0.04,0.000000,,2013-02-16 15:31:00,
2013-02-16 05:41:00,64.0,64.0,-100.00,East,100,3.0,8.0,100,0.00,,,0.04,0.000000,,2013-02-16 15:41:00,
2013-02-16 05:51:00,64.0,64.0,-100.00,East,100,3.0,8.0,100,0.00,,,0.04,0.000000,,2013-02-16 15:51:00,
2013-02-16 06:21:00,62.0,62.0,-100.00,ESE,110,1.0,6.0,100,0.00,,,-99.99,0.000000,,2013-02-16 16:21:00,
2013-02-16 06:32:00,62.0,62.0,-100.00,ESE,110,1.0,6.0,100,0.00,,,-99.99,0.000000,,2013-02-16 16:32:00,
2013-02-16 06:41:00,62.0,62.0,-100.00,ESE,110,1.0,6.0,100,0.00,,,-99.99,0.000000,,2013-02-16 16:41:00,
2013-02-16 06:51:00,62.0,62.0,-100.00,ESE,110,1.0,6.0,100,0.00,,,-99.99,0.000000,,2013-02-16 16:51:00,
2013-02-16 07:21:00,62.0,62.0,-100.00,ESE,107,2.0,7.0,100,0.03,,,0.07,0.000000,,2013-02-16 17:21:00,
2013-02-16 07:32:00,62.0,62.0,-100.00,ESE,107,2.0,7.0,100,0.03,,,0.07,0.000000,,2013-02-16 17:32:00,
2013-02-16 07:41:00,62.0,62.0,-100.00,ESE,107,2.0,7.0,100,0.03,,,0.07,0.000000,,2013-02-16 17:41:00,
2013-02-16 07:52:00,62.0,62.0,-100.00,ESE,107,2.0,7.0,100,0.03,,,0.07,0.000000,,2013-02-16 17:52:00,
2013-02-16 08:21:00,63.0,63.0,-100.00,NE,55,6.0,11.0,100,0.01,,,-99.99,9.000000,,2013-02-16 18:21:00,
2013-02-16 08:33:00,63.0,63.0,-100.00,NE,55,6.0,11.0,100,0.01,,,-99.99,9.000000,,2013-02-16 18:33:00,
2013-02-16 08:42:00,63.0,63.0,-100.00,NE,55,6.0,11.0,100,0.01,,,-99.99,9.000000,,2013-02-16 18:42:00,
2013-02-16 08:51:00,63.0,63.0,-100.00,NE,55,6.0,11.0,100,0.01,,,-99.99,9.000000,,2013-02-16 18:51:00,
2013-02-16 09:21:00,66.0,66.0,-100.00,ENE,62,4.0,13.0,100,0.00,,,0.08,70.000000,,2013-02-16 19:21:00,
2013-02-16 09:31:00,66.0,66.0,-100.00,ENE,62,4.0,13.0,100,0.00,,,0.08,70.000000,,2013-02-16 19:31:00,
2013-02-16 09:42:00,66.0,66.0,-100.00,ENE,62,4.0,13.0,100,0.00,,,0.08,70.000000,,2013-02-16 19:42:00,
2013-02-16 09:52:00,66.0,66.0,-100.00,ENE,62,4.0,13.0,100,0.00,,,0.08,70.000000,,2013-02-16 19:52:00,
2013-02-16 10:21:00,69.0,64.0,-100.00,NE,40,3.0,16.0,83,0.00,,,0.08,160.000000,,2013-02-16 20:21:00,
2013-02-16 10:32:00,69.0,64.0,-100.00,NE,40,3.0,16.0,83,0.00,,,0.08,160.000000,,2013-02-16 20:32:00,
2013-02-16 10:42:00,69.0,64.0,-100.00,NE,40,3.0,16.0,83,0.00,,,0.08,160.000000,,2013-02-16 20:42:00,
2013-02-16 10:52:00,69.0,64.0,-100.00,NE,40,3.0,16.0,83,0.00,,,0.08,160.000000,,2013-02-16 20:52:00,
2013-02-16 11:21:00,73.0,65.0,-100.00,NE,37,9.0,20.0,77,0.01,,,0.09,323.000000,,2013-02-16 21:21:00,
2013-02-16 11:31:00,73.0,65.0,-100.00,NE,37,9.0,20.0,77,0.01,,,0.09,323.000000,,2013-02-16 21:31:00,
2013-02-16 11:41:00,73.0,65.0,-100.00,NE,37,9.0,20.0,77,0.01,,,0.09,323.000000,,2013-02-16 21:41:00,
2013-02-16 11:52:00,73.0,65.0,-100.00,NE,37,9.0,20.0,77,0.01,,,0.09,323.000000,,2013-02-16 21:52:00,
2013-02-16 12:21:00,72.0,62.0,-100.00,ENE,77,10.0,22.0,71,0.00,,,0.09,696.000000,,2013-02-16 22:21:00,
2013-02-16 12:32:00,72.0,62.0,-100.00,ENE,77,10.0,22.0,71,0.00,,,0.09,696.000000,,2013-02-16 22:32:00,
2013-02-16 12:42:00,72.0,62.0,-100.00,ENE,77,10.0,22.0,71,0.00,,,0.09,696.000000,,2013-02-16 22:42:00,
2013-02-16 12:51:00,72.0,62.0,-100.00,ENE,77,10.0,22.0,71,0.00,,,0.09,696.000000,,2013-02-16 22:51:00,
2013-02-16 13:21:00,73.0,64.0,-100.00,NE,54,11.0,20.0,74,0.00,,,0.09,488.000000,,2013-02-16 23:21:00,
2013-02-16 13:31:00,73.0,64.0,-100.00,NE,54,11.0,20.0,74,0.00,,,0.09,488.000000,,2013-02-16 23:31:00,
2013-02-16 13:42:00,73.0,64.0,-100.00,NE,54,11.0,20.0,74,0.00,,,0.09,488.000000,,2013-02-16 23:42:00,
2013-02-16 13:52:00,73.0,64.0,-100.00,NE,54,11.0,20.0,74,0.00,,,0.09,488.000000,,2013-02-16 23:52:00,
2013-02-16 14:21:00,73.0,64.0,-100.00,NE,46,9.0,22.0,73,0.00,,,-99.99,776.000000,,2013-02-17 00:21:00,
2013-02-16 14:31:00,73.0,64.0,-100.00,NE,46,9.0,22.0,73,0.00,,,-99.99,776.000000,,2013-02-17 00:31:00,
2013-02-16 14:41:00,73.0,64.0,-100.00,NE,46,9.0,22.0,73,0.00,,,-99.99,776.000000,,2013-02-17 00:41:00,
2013-02-16 14:51:00,73.0,64.0,-100.00,NE,46,9.0,22.0,73,0.00,,,-99.99,776.000000,,2013-02-17 00:51:00,
2013-02-16 15:21:00,70.0,62.0,-100.00,NE,56,9.0,27.0,75,0.00,,,0.09,508.000000,,2013-02-17 01:21:00,
2013-02-16 15:31:00,70.0,62.0,-100.00,NE,56,9.0,27.0,75,0.00,,,0.09,508.000000,,2013-02-17 01:31:00,
2013-02-16 15:41:00,70.0,62.0,-100.00,NE,56,9.0,27.0,75,0.00,,,0.09,508.000000,,2013-02-17 01:41:00,
2013-02-16 15:52:00,70.0,62.0,-100.00,NE,56,9.0,27.0,75,0.00,,,0.09,508.000000,,2013-02-17 01:52:00,
2013-02-16 16:21:00,73.0,63.0,-100.00,NE,41,10.0,25.0,72,0.00,,,0.09,722.000000,,2013-02-17 02:21:00,
2013-02-16 16:31:00,73.0,63.0,-100.00,NE,41,10.0,25.0,72,0.00,,,0.09,722.000000,,2013-02-17 02:31:00,
2013-02-16 16:41:00,73.0,63.0,-100.00,NE,41,10.0,25.0,72,0.00,,,0.09,722.000000,,2013-02-17 02:41:00,
2013-02-16 16:52:00,73.0,63.0,-100.00,NE,41,10.0,25.0,72,0.00,,,0.09,722.000000,,2013-02-17 02:52:00,
2013-02-16 17:11:00,72.0,62.0,-100.00,NE,40,11.0,23.0,70,0.00,,,0.09,952.000000,,2013-02-17 03:11:00,
2013-02-16 17:21:00,72.0,62.0,-100.00,NE,40,11.0,23.0,70,0.00,,,0.09,952.000000,,2013-02-17 03:21:00,
2013-02-16 17:31:00,72.0,62.0,-100.00,NE,40,11.0,23.0,70,0.00,,,0.09,952.000000,,2013-02-17 03:31:00,
2013-02-16 17:42:00,72.0,62.0,-100.00,NE,40,11.0,23.0,70,0.00,,,0.09,952.000000,,2013-02-17 03:42:00,
2013-02-16 17:51:00,72.0,62.0,-100.00,NE,40,11.0,23.0,70,0.00,,,0.09,952.000000,,2013-02-17 03:51:00,
2013-02-16 18:21:00,68.0,61.0,-100.00,NE,45,9.0,20.0,77,0.00,,,0.09,609.000000,,2013-02-17 04:21:00,
2013-02-16 18:31:00,68.0,61.0,-100.00,NE,45,9.0,20.0,77,0.00,,,0.09,609.000000,,2013-02-17 04:31:00,
2013-02-16 18:41:00,68.0,61.0,-100.00,NE,45,9.0,20.0,77,0.00,,,0.09,609.000000,,2013-02-17 04:41:00,
2013-02-16 18:51:00,68.0,61.0,-100.00,NE,45,9.0,20.0,77,0.00,,,0.09,609.000000,,2013-02-17 04:51:00,
2013-02-16 19:22:00,67.0,62.0,-100.00,NNE,29,7.0,18.0,83,0.00,,,0.09,42.000000,,2013-02-17 05:22:00,
2013-02-16 19:32:00,67.0,62.0,-100.00,NNE,29,7.0,18.0,83,0.00,,,0.09,42.000000,,2013-02-17 05:32:00,
2013-02-16 19:42:00,67.0,62.0,-100.00,NNE,29,7.0,18.0,83,0.00,,,0.09,42.000000,,2013-02-17 05:42:00,
2013-02-16 19:52:00,67.0,62.0,-100.00,NNE,29,7.0,18.0,83,0.00,,,0.09,42.000000,,2013-02-17 05:52:00,
2013-02-16 20:21:00,65.0,60.0,-100.00,NE,41,10.0,23.0,84,0.00,,,0.09,0.000000,,2013-02-17 06:21:00,
2013-02-16 20:31:00,65.0,60.0,-100.00,NE,41,10.0,23.0,84,0.00,,,0.09,0.000000,,2013-02-17 06:31:00,
2013-02-16 20:41:00,65.0,60.0,-100.00,NE,41,10.0,23.0,84,0.00,,,0.09,0.000000,,2013-02-17 06:41:00,
2013-02-16 20:51:00,65.0,60.0,-100.00,NE,41,10.0,23.0,84,0.00,,,0.09,0.000000,,2013-02-17 06:51:00,
2013-02-16 21:21:00,66.0,60.0,-100.00,ENE,59,5.0,17.0,81,0.00,,,0.09,0.000000,,2013-02-17 07:21:00,
2013-02-16 21:31:00,66.0,60.0,-100.00,ENE,59,5.0,17.0,81,0.00,,,0.09,0.000000,,2013-02-17 07:31:00,
2013-02-16 21:41:00,66.0,60.0,-100.00,ENE,59,5.0,17.0,81,0.00,,,0.09,0.000000,,2013-02-17 07:41:00,
2013-02-16 21:51:00,66.0,60.0,-100.00,ENE,59,5.0,17.0,81,0.00,,,0.09,0.000000,,2013-02-17 07:51:00,
2013-02-16 22:21:00,65.0,62.0,-100.00,NE,39,7.0,16.0,90,0.00,,,0.09,0.000000,,2013-02-17 08:21:00,
2013-02-16 22:31:00,65.0,62.0,-100.00,NE,39,7.0,16.0,90,0.00,,,0.09,0.000000,,2013-02-17 08:31:00,
2013-02-16 22:42:00,65.0,62.0,-100.00,NE,39,7.0,16.0,90,0.00,,,0.09,0.000000,,2013-02-17 08:42:00,
2013-02-16 22:52:00,65.0,62.0,-100.00,NE,39,7.0,16.0,90,0.00,,,0.09,0.000000,,2013-02-17 08:52:00,
2013-02-16 23:21:00,67.0,63.0,-100.00,NE,40,9.0,17.0,86,0.00,,,0.09,0.000000,,2013-02-17 09:21:00,
2013-02-16 23:31:00,67.0,63.0,-100.00,NE,40,9.0,17.0,86,0.00,,,0.09,0.000000,,2013-02-17 09:31:00,
2013-02-16 23:41:00,67.0,63.0,-100.00,NE,40,9.0,17.0,86,0.00,,,0.09,0.000000,,2013-02-17 09:41:00,
2013-02-16 23:51:00,67.0,63.0,-100.00,NE,40,9.0,17.0,86,0.00,,,0.09,0.000000,,2013-02-17 09:51:00,